Date,TemperatureHighF,TemperatureAvgF,TemperatureLowF,DewpointHighF,DewpointAvgF,DewpointLowF,HumidityHigh,HumidityAvg,HumidityLow,PressureMaxIn,PressureMinIn,WindSpeedMaxMPH,WindSpeedAvgMPH,GustSpeedMaxMPH,PrecipitationSumIn
2013-2-1,43,32,26,34,18,8,77,56,32,30.44,30.12,23,7,0,0.00
2013-2-2,41,33,25,37,27,16,96,79,55,30.35,30.13,11,1,0,0.19
2013-2-3,54,43,36,39,32,27,96,69,38,30.16,30.05,19,6,0,0.00
2013-2-4,50,41,33,36,32,29,89,71,46,30.11,29.95,6,1,0,0.00
2013-2-5,58,48,40,50,44,35,96,84,72,30.03,29.92,10,1,0,0.01
2013-2-6,63,47,39,48,40,31,98,81,31,30.17,30.03,6,1,0,0.00
2013-2-7,53,48,46,48,45,42,96,89,73,30.09,29.91,13,2,0,0.14
2013-2-8,49,45,37,48,41,32,96,87,74,30.24,29.88,19,6,0,0.42
2013-2-9,58,44,34,39,34,29,86,70,40,30.30,30.15,10,3,0,0.00
2013-2-10,57,53,48,55,44,32,95,74,49,30.16,29.91,23,2,0,1.18
2013-2-11,57,53,44,56,48,41,97,85,58,30.13,29.94,8,1,0,0.04
2013-2-12,50,45,41,43,40,36,93,84,60,30.12,29.76,7,2,0,0.31
2013-2-13,47,43,36,46,40,34,96,88,77,30.01,29.68,19,5,0,0.04
2013-2-14,56,44,34,39,37,33,95,76,51,30.08,30.00,8,1,0,0.00
2013-2-15,58,45,32,42,36,31,96,73,45,30.10,30.00,16,5,0,0.01
2013-2-16,41,35,29,32,21,15,71,57,38,30.21,30.04,21,8,0,0.00
2013-2-17,49,34,21,25,18,14,79,54,29,30.32,30.20,8,1,0,0.00
2013-2-18,61,46,30,39,30,23,92,57,35,30.28,29.92,26,5,0,0.03
2013-2-19,52,46,35,45,33,21,95,64,34,30.21,29.90,20,6,0,0.43
2013-2-20,42,36,29,26,22,15,84,57,34,30.26,30.14,12,4,0,0.00
2013-2-21,57,44,33,46,31,21,93,64,25,30.16,29.85,10,3,0,1.20
2013-2-22,49,47,45,46,45,44,96,91,88,30.05,29.92,8,2,0,0.08
2013-2-23,51,46,37,47,44,36,96,93,85,29.98,29.85,6,1,0,0.27
2013-2-24,59,44,33,39,37,32,97,79,40,30.07,29.93,10,2,0,0.01
2013-2-25,57,49,41,44,38,31,91,67,52,29.94,29.52,18,6,0,0.32
2013-2-26,48,45,42,44,39,33,93,80,66,29.78,29.45,20,8,0,0.37
2013-2-27,57,46,40,39,34,31,78,63,44,29.91,29.79,20,7,0,0.00
2013-2-28,41,38,35,35,29,26,87,71,60,30.04,29.87,21,7,0,0.00